createdAt,value
2023-06-28T00:01:04.315Z,2.58
2023-06-28T00:03:49.813Z,2.42
2023-06-28T00:06:34.936Z,2.35
2023-06-28T00:09:20.325Z,2.39
2023-06-28T00:12:05.549Z,2.52
2023-06-28T00:14:50.973Z,2.18
2023-06-28T00:17:36.522Z,2.35
2023-06-28T00:20:21.617Z,2.23
2023-06-28T00:23:06.927Z,2.36
2023-06-28T00:25:52.248Z,2.24
2023-06-28T00:28:37.743Z,2.14
2023-06-28T00:31:23.074Z,2.12
2023-06-28T00:34:08.320Z,2.28
2023-06-28T00:36:53.858Z,2.39
2023-06-28T00:39:39.187Z,2.45
2023-06-28T00:42:24.445Z,2.23
2023-06-28T00:45:09.586Z,2.41
2023-06-28T00:47:55.188Z,2.18
2023-06-28T00:50:40.717Z,2.31
2023-06-28T00:53:25.887Z,2.31
2023-06-28T00:56:11.320Z,2.15
2023-06-28T00:58:56.628Z,2.20
2023-06-28T01:01:41.877Z,2.06
2023-06-28T01:04:27.239Z,2.42
2023-06-28T01:07:12.758Z,2.18
2023-06-28T01:09:58.236Z,2.04
2023-06-28T01:12:43.491Z,2.08
2023-06-28T01:15:29.150Z,2.15
2023-06-28T01:18:14.695Z,2.13
2023-06-28T01:21:00.099Z,2.32
2023-06-28T01:23:45.481Z,2.10
2023-06-28T01:26:30.867Z,2.02
2023-06-28T01:29:16.351Z,2.08
2023-06-28T01:32:01.742Z,2.02
2023-06-28T01:34:46.833Z,2.14
2023-06-28T01:37:32.235Z,2.24
2023-06-28T01:40:17.419Z,2.00
2023-06-28T01:43:02.924Z,2.12
2023-06-28T01:45:48.231Z,1.94
2023-06-28T01:48:33.473Z,2.03
2023-06-28T01:51:18.792Z,2.14
2023-06-28T01:54:04.254Z,2.14
2023-06-28T01:56:49.453Z,2.08
2023-06-28T01:59:34.905Z,2.09
2023-06-28T02:02:20.202Z,1.82
2023-06-28T02:05:07.316Z,2.12
2023-06-28T02:07:52.647Z,1.81
2023-06-28T02:10:41.667Z,1.98
2023-06-28T02:13:27.003Z,2.02
2023-06-28T02:16:12.133Z,1.86
2023-06-28T02:18:57.395Z,1.98
2023-06-28T02:21:42.702Z,2.00
2023-06-28T02:24:28.121Z,2.07
2023-06-28T02:27:13.444Z,1.96
2023-06-28T02:29:59.054Z,2.12
2023-06-28T02:32:44.341Z,1.99
2023-06-28T02:35:29.420Z,1.91
2023-06-28T02:38:15.011Z,1.94
2023-06-28T02:41:00.366Z,1.91
2023-06-28T02:43:45.648Z,2.05
2023-06-28T02:46:30.955Z,2.14
2023-06-28T02:49:16.313Z,1.80
2023-06-28T02:52:01.758Z,1.95
2023-06-28T02:54:47.254Z,2.07
2023-06-28T02:57:32.686Z,1.98
2023-06-28T03:00:18.069Z,1.99
2023-06-28T03:03:03.516Z,1.98
2023-06-28T03:05:48.968Z,1.80
2023-06-28T03:08:34.474Z,1.93
2023-06-28T03:11:19.762Z,1.86
2023-06-28T03:14:04.911Z,1.98
2023-06-28T03:16:50.378Z,1.69
2023-06-28T03:19:35.414Z,1.83
2023-06-28T03:22:20.807Z,1.91
2023-06-28T03:25:06.466Z,1.85
2023-06-28T03:27:51.663Z,1.87
2023-06-28T03:30:37.202Z,1.96
2023-06-28T03:33:22.534Z,2.22
2023-06-28T03:36:07.814Z,1.78
2023-06-28T03:38:53.280Z,1.99
2023-06-28T03:41:38.573Z,1.83
2023-06-28T03:44:24.031Z,1.88
2023-06-28T03:47:09.393Z,1.78
2023-06-28T03:49:54.613Z,1.83
2023-06-28T03:52:39.963Z,1.81
2023-06-28T03:55:25.339Z,1.82
2023-06-28T03:58:10.637Z,1.94
2023-06-28T04:00:55.922Z,1.83
2023-06-28T04:03:41.226Z,1.84
2023-06-28T04:06:26.577Z,1.88
2023-06-28T04:09:12.000Z,1.94
2023-06-28T04:11:57.410Z,1.79
2023-06-28T04:14:42.907Z,1.87
2023-06-28T04:17:28.551Z,1.75
2023-06-28T04:20:14.196Z,1.84
2023-06-28T04:22:59.493Z,1.74
2023-06-28T04:25:45.004Z,1.95
2023-06-28T04:28:30.220Z,1.68
2023-06-28T04:31:15.770Z,1.68
2023-06-28T04:34:00.881Z,1.82
2023-06-28T04:36:46.319Z,1.57
2023-06-28T04:39:31.474Z,1.83
2023-06-28T04:42:16.635Z,1.74
2023-06-28T04:45:02.001Z,1.75
2023-06-28T04:47:47.398Z,1.62
2023-06-28T04:50:33.031Z,1.54
2023-06-28T04:53:18.341Z,1.67
2023-06-28T04:56:03.437Z,1.96
2023-06-28T04:58:48.636Z,1.99
2023-06-28T05:01:34.031Z,2.03
2023-06-28T05:04:19.395Z,1.83
2023-06-28T05:07:04.791Z,1.96
2023-06-28T05:09:50.259Z,2.18
2023-06-28T05:12:35.393Z,1.93
2023-06-28T05:15:20.982Z,1.99
2023-06-28T05:18:06.410Z,2.03
2023-06-28T05:20:51.583Z,1.98
2023-06-28T05:23:36.958Z,2.13
2023-06-28T05:26:22.190Z,2.02
2023-06-28T05:29:07.697Z,2.05
2023-06-28T05:31:52.995Z,1.87
2023-06-28T05:34:38.416Z,2.04
2023-06-28T05:37:23.819Z,2.00
2023-06-28T05:40:09.136Z,2.04
2023-06-28T05:42:54.635Z,2.09
2023-06-28T05:45:39.901Z,2.10
2023-06-28T05:48:25.321Z,2.12
2023-06-28T05:51:10.811Z,1.98
2023-06-28T05:53:56.036Z,2.01
2023-06-28T05:56:41.184Z,2.00
2023-06-28T05:59:26.332Z,1.77
2023-06-28T06:02:11.999Z,1.82
2023-06-28T06:04:57.224Z,2.04
2023-06-28T06:07:42.604Z,2.00
2023-06-28T06:10:27.924Z,1.90
2023-06-28T06:13:13.180Z,1.96
2023-06-28T06:15:58.646Z,1.93
2023-06-28T06:18:43.890Z,2.04
2023-06-28T06:21:29.099Z,1.77
2023-06-28T06:24:14.606Z,1.91
2023-06-28T06:26:59.928Z,2.15
2023-06-28T06:29:45.384Z,1.88
2023-06-28T06:32:30.620Z,1.96
2023-06-28T06:35:15.943Z,2.08
2023-06-28T06:38:01.349Z,1.70
2023-06-28T06:40:46.795Z,1.83
2023-06-28T06:43:32.092Z,2.03
2023-06-28T06:46:17.581Z,1.91
2023-06-28T06:49:03.926Z,2.06
2023-06-28T06:51:49.466Z,1.88
2023-06-28T06:54:34.925Z,2.00
2023-06-28T06:57:20.250Z,1.88
2023-06-28T07:00:05.403Z,1.96
2023-06-28T07:02:50.837Z,1.77
2023-06-28T07:05:36.037Z,1.82
2023-06-28T07:08:21.269Z,2.02
2023-06-28T07:11:06.878Z,1.88
2023-06-28T07:13:52.138Z,1.87
2023-06-28T07:16:37.643Z,1.89
2023-06-28T07:19:22.862Z,2.00
2023-06-28T07:22:08.350Z,1.87
2023-06-28T07:24:53.743Z,1.85
2023-06-28T07:27:39.184Z,1.86
2023-06-28T07:30:24.675Z,1.94
2023-06-28T07:33:09.924Z,1.92
2023-06-28T07:35:55.363Z,1.86
2023-06-28T07:38:40.553Z,1.89
2023-06-28T07:41:25.866Z,1.82
2023-06-28T07:44:11.333Z,1.89
2023-06-28T07:46:56.684Z,1.93
2023-06-28T07:49:42.206Z,1.91
2023-06-28T07:52:27.429Z,1.76
2023-06-28T07:55:12.832Z,1.88
2023-06-28T07:57:58.005Z,2.00
2023-06-28T08:00:43.287Z,1.88
2023-06-28T08:03:29.822Z,1.75
2023-06-28T08:06:14.875Z,1.87
2023-06-28T08:09:00.337Z,1.84
2023-06-28T08:11:45.536Z,1.75
2023-06-28T08:14:30.765Z,1.74
2023-06-28T08:17:16.174Z,1.87
2023-06-28T08:20:01.494Z,1.75
2023-06-28T08:22:46.947Z,2.04
2023-06-28T08:25:32.376Z,2.00
2023-06-28T08:28:17.768Z,1.76
2023-06-28T08:31:03.233Z,1.96
2023-06-28T08:33:48.985Z,1.85
2023-06-28T08:36:34.390Z,1.86
2023-06-28T08:39:19.737Z,1.84
2023-06-28T08:42:05.233Z,1.84
2023-06-28T08:44:51.784Z,1.94
2023-06-28T08:47:37.027Z,1.90
2023-06-28T08:50:22.572Z,1.98
2023-06-28T08:53:07.848Z,1.83
2023-06-28T08:55:53.086Z,1.86
2023-06-28T08:58:38.542Z,1.90
2023-06-28T09:01:23.608Z,1.96
2023-06-28T09:04:09.209Z,2.00
2023-06-28T09:06:54.524Z,1.83
2023-06-28T09:09:39.898Z,1.89
2023-06-28T09:12:25.295Z,1.93
2023-06-28T09:15:10.612Z,1.87
2023-06-28T09:17:55.964Z,1.75
2023-06-28T09:20:41.191Z,1.94
2023-06-28T09:23:26.715Z,1.97
2023-06-28T09:26:11.984Z,1.90
2023-06-28T09:28:57.377Z,2.04
2023-06-28T09:31:42.834Z,1.84
2023-06-28T09:34:28.373Z,1.84
2023-06-28T09:37:13.931Z,2.05
2023-06-28T09:39:59.209Z,1.91
2023-06-28T09:42:44.528Z,1.90
2023-06-28T09:45:29.850Z,1.90
2023-06-28T09:48:15.008Z,2.19
2023-06-28T09:51:00.310Z,2.03
2023-06-28T09:53:45.434Z,2.01
2023-06-28T09:56:31.111Z,1.93
2023-06-28T09:59:26.718Z,1.95
2023-06-28T10:02:19.723Z,1.94
2023-06-28T10:05:05.032Z,2.24
2023-06-28T10:07:50.268Z,1.94
2023-06-28T10:10:35.369Z,2.13
2023-06-28T10:13:20.688Z,2.07
2023-06-28T10:16:06.137Z,2.06
2023-06-28T10:18:51.407Z,1.83
2023-06-28T10:21:36.577Z,1.78
2023-06-28T10:24:22.137Z,2.26
2023-06-28T10:27:07.804Z,2.06
2023-06-28T10:29:53.853Z,2.08
2023-06-28T10:32:39.508Z,1.95
2023-06-28T10:35:24.639Z,2.01
2023-06-28T10:38:10.065Z,1.99
2023-06-28T10:40:55.659Z,2.25
2023-06-28T10:43:40.805Z,1.99
2023-06-28T10:46:25.741Z,2.11
2023-06-28T10:49:10.890Z,1.93
2023-06-28T10:51:56.393Z,1.97
2023-06-28T10:54:41.593Z,1.96
2023-06-28T10:57:27.062Z,2.32
2023-06-28T11:00:12.411Z,2.17
2023-06-28T11:02:57.685Z,2.05
2023-06-28T11:05:43.254Z,2.17
2023-06-28T11:08:29.329Z,2.28
2023-06-28T11:11:14.602Z,2.11
2023-06-28T11:13:59.727Z,2.17
2023-06-28T11:16:45.142Z,2.21
2023-06-28T11:19:30.403Z,2.08
2023-06-28T11:22:15.742Z,2.31
2023-06-28T11:25:01.262Z,2.29
2023-06-28T11:27:46.520Z,2.22
2023-06-28T11:30:31.909Z,2.21
2023-06-28T11:33:17.340Z,2.07
2023-06-28T11:36:02.670Z,2.16
2023-06-28T11:38:47.865Z,2.06
2023-06-28T11:41:33.041Z,2.12
2023-06-28T11:44:18.548Z,2.06
2023-06-28T11:47:03.878Z,2.17
2023-06-28T11:49:49.172Z,2.14
2023-06-28T11:52:34.440Z,2.13
2023-06-28T11:55:19.469Z,2.01
2023-06-28T11:58:04.756Z,2.05
2023-06-28T12:00:50.007Z,2.15
2023-06-28T12:03:35.588Z,2.27
2023-06-28T12:06:20.636Z,2.18
2023-06-28T12:09:06.198Z,1.97
2023-06-28T12:11:51.388Z,2.02
2023-06-28T12:14:36.492Z,2.13
2023-06-28T12:17:22.037Z,2.06
2023-06-28T12:20:07.286Z,2.07
2023-06-28T12:22:52.553Z,2.05
2023-06-28T12:25:37.933Z,2.15
2023-06-28T12:28:23.209Z,2.21
2023-06-28T12:31:08.338Z,2.08
2023-06-28T12:33:53.590Z,2.02
2023-06-28T12:36:39.126Z,2.09
2023-06-28T12:39:24.383Z,1.90
2023-06-28T12:42:09.520Z,1.96
2023-06-28T12:44:54.854Z,2.00
2023-06-28T12:47:40.216Z,2.15
2023-06-28T12:50:25.747Z,2.03
2023-06-28T12:53:10.973Z,2.01
2023-06-28T12:55:56.559Z,2.00
2023-06-28T12:58:41.914Z,2.12
2023-06-28T13:01:27.464Z,2.00
2023-06-28T13:04:12.618Z,2.18
2023-06-28T13:06:58.029Z,2.02
2023-06-28T13:09:43.554Z,1.99
2023-06-28T13:12:28.780Z,2.18
2023-06-28T13:15:13.905Z,2.18
2023-06-28T13:17:58.983Z,1.96
2023-06-28T13:20:44.118Z,2.23
2023-06-28T13:23:29.253Z,2.14
2023-06-28T13:26:14.642Z,1.96
2023-06-28T13:29:00.029Z,2.14
2023-06-28T13:31:45.132Z,1.97
2023-06-28T13:34:30.512Z,2.16
2023-06-28T13:37:27.636Z,2.03
2023-06-28T13:40:14.179Z,2.14
2023-06-28T13:42:59.575Z,2.12
2023-06-28T13:45:45.147Z,1.99
2023-06-28T13:48:30.386Z,2.26
2023-06-28T13:51:15.514Z,1.96
2023-06-28T13:54:00.893Z,2.08
2023-06-28T13:56:46.267Z,2.18
2023-06-28T13:59:31.603Z,1.99
2023-06-28T14:02:17.059Z,2.15
2023-06-28T14:05:02.197Z,2.26
2023-06-28T14:07:47.696Z,2.05
2023-06-28T14:10:32.957Z,2.12
2023-06-28T14:13:18.393Z,2.04
2023-06-28T14:16:03.659Z,1.97
2023-06-28T14:18:49.088Z,2.23
2023-06-28T14:21:34.203Z,1.96
2023-06-28T14:24:19.380Z,2.06
2023-06-28T14:27:04.905Z,2.17
2023-06-28T14:29:50.090Z,2.07
2023-06-28T14:32:35.413Z,2.06
2023-06-28T14:35:20.679Z,2.31
2023-06-28T14:38:05.914Z,2.16
2023-06-28T14:40:51.295Z,2.16
2023-06-28T14:43:36.553Z,2.27
2023-06-28T14:46:21.972Z,2.34
2023-06-28T14:49:07.268Z,2.45
2023-06-28T14:51:52.557Z,2.34
2023-06-28T14:54:38.702Z,2.11
2023-06-28T14:57:23.634Z,2.31
2023-06-28T15:00:09.061Z,2.44
2023-06-28T15:02:54.351Z,2.10
2023-06-28T15:05:39.988Z,2.36
2023-06-28T15:08:25.208Z,2.18
2023-06-28T15:11:10.567Z,2.25
2023-06-28T15:13:56.158Z,2.15
2023-06-28T15:16:41.554Z,2.67
2023-06-28T15:19:26.740Z,2.20
2023-06-28T15:22:12.429Z,2.20
2023-06-28T15:24:57.689Z,2.30
2023-06-28T15:27:42.850Z,2.39
2023-06-28T15:30:28.013Z,2.20
2023-06-28T15:33:13.598Z,2.18
2023-06-28T15:35:58.801Z,2.36
2023-06-28T15:38:44.306Z,2.28
2023-06-28T15:41:29.756Z,2.42
2023-06-28T15:44:15.125Z,2.39
2023-06-28T15:47:00.572Z,2.68
2023-06-28T15:49:45.773Z,2.54
2023-06-28T15:52:31.065Z,2.71
2023-06-28T15:55:16.465Z,2.38
2023-06-28T15:58:01.875Z,2.48
2023-06-28T16:00:50.254Z,2.39
2023-06-28T16:03:35.319Z,2.46
2023-06-28T16:06:20.378Z,2.36
2023-06-28T16:09:05.608Z,2.30
2023-06-28T16:11:50.995Z,2.45
2023-06-28T16:14:37.477Z,2.13
2023-06-28T16:17:22.620Z,2.38
2023-06-28T16:20:08.074Z,2.55
2023-06-28T16:22:53.378Z,2.89
2023-06-28T16:25:38.683Z,3.15
2023-06-28T16:28:24.066Z,3.19
2023-06-28T16:31:09.487Z,3.24
2023-06-28T16:33:54.697Z,3.24
2023-06-28T16:36:40.077Z,3.08
2023-06-28T16:39:25.270Z,3.40
2023-06-28T16:42:10.586Z,3.32
2023-06-28T16:44:56.003Z,3.41
2023-06-28T16:47:41.518Z,3.51
2023-06-28T16:50:29.853Z,3.49
2023-06-28T16:53:15.281Z,3.59
2023-06-28T16:56:00.783Z,3.62
2023-06-28T16:58:46.060Z,3.65
2023-06-28T17:01:31.389Z,3.54
2023-06-28T17:04:16.719Z,3.74
2023-06-28T17:07:02.176Z,3.91
2023-06-28T17:09:47.412Z,3.78
2023-06-28T17:12:32.583Z,3.61
2023-06-28T17:15:17.964Z,3.58
2023-06-28T17:18:03.056Z,3.68
2023-06-28T17:20:48.578Z,3.57
2023-06-28T17:23:33.670Z,3.45
2023-06-28T17:26:18.847Z,3.65
2023-06-28T17:29:04.272Z,3.53
2023-06-28T17:31:49.532Z,3.83
2023-06-28T17:34:34.535Z,3.46
2023-06-28T17:37:19.834Z,3.76
2023-06-28T17:40:05.405Z,3.41
2023-06-28T17:42:50.724Z,3.72
2023-06-28T17:45:35.976Z,3.66
2023-06-28T17:48:21.521Z,3.78
2023-06-28T17:51:06.813Z,4.60
2023-06-28T17:53:51.803Z,4.64
2023-06-28T17:56:36.873Z,5.06
2023-06-28T17:59:22.227Z,4.52
2023-06-28T18:02:07.684Z,5.16
2023-06-28T18:04:53.087Z,5.01
2023-06-28T18:07:38.362Z,5.18
2023-06-28T18:10:23.912Z,5.48
2023-06-28T18:13:09.262Z,5.28
2023-06-28T18:15:54.572Z,5.44
2023-06-28T18:18:39.822Z,5.28
2023-06-28T18:21:25.358Z,5.34
2023-06-28T18:24:10.254Z,5.37
2023-06-28T18:26:55.549Z,5.14
2023-06-28T18:29:40.901Z,5.34
2023-06-28T18:32:26.366Z,5.25
2023-06-28T18:35:11.699Z,5.33
2023-06-28T18:37:56.998Z,5.42
2023-06-28T18:40:42.233Z,5.24
2023-06-28T18:43:27.635Z,5.21
2023-06-28T18:46:12.969Z,5.43
2023-06-28T18:48:58.442Z,5.31
2023-06-28T18:51:43.789Z,5.16
2023-06-28T18:54:29.136Z,4.94
2023-06-28T18:57:14.617Z,5.22
2023-06-28T19:00:00.124Z,5.19
2023-06-28T19:02:45.229Z,4.97
2023-06-28T19:05:30.529Z,5.10
2023-06-28T19:08:15.853Z,5.20
2023-06-28T19:11:03.754Z,5.21
2023-06-28T19:13:49.977Z,5.13
2023-06-28T19:16:35.649Z,5.13
2023-06-28T19:19:20.495Z,5.15
2023-06-28T19:22:05.693Z,5.06
2023-06-28T19:24:51.145Z,5.04
2023-06-28T19:27:36.563Z,5.17
2023-06-28T19:30:21.932Z,4.85
2023-06-28T19:33:07.294Z,5.23
2023-06-28T19:35:52.538Z,5.51
2023-06-28T19:38:37.567Z,4.93
2023-06-28T19:41:22.861Z,4.93
2023-06-28T19:44:08.273Z,5.41
2023-06-28T19:46:53.801Z,5.27
2023-06-28T19:49:39.455Z,5.99
2023-06-28T19:52:24.565Z,6.10
2023-06-28T19:55:10.877Z,5.94
2023-06-28T19:57:57.267Z,6.22
2023-06-28T20:00:44.020Z,5.80
2023-06-28T20:03:30.901Z,5.97
2023-06-28T20:06:16.420Z,5.50
2023-06-28T20:09:02.265Z,5.73
2023-06-28T20:11:48.574Z,5.85
2023-06-28T20:14:36.119Z,5.46
2023-06-28T20:17:22.147Z,6.02
2023-06-28T20:20:08.004Z,5.65
2023-06-28T20:22:53.225Z,5.85
2023-06-28T20:25:38.980Z,5.75
2023-06-28T20:28:24.149Z,6.23
2023-06-28T20:31:09.520Z,6.21
2023-06-28T20:33:54.857Z,6.40
2023-06-28T20:36:42.523Z,8.18
2023-06-28T20:39:27.948Z,19.52
2023-06-28T20:42:13.280Z,12.10
2023-06-28T20:44:58.518Z,9.59
2023-06-28T20:47:43.976Z,10.23
2023-06-28T20:50:28.957Z,9.09
2023-06-28T20:53:14.188Z,8.42
2023-06-28T20:55:59.396Z,7.96
2023-06-28T20:58:44.747Z,7.93
2023-06-28T21:01:30.103Z,7.74
2023-06-28T21:04:15.434Z,8.27
2023-06-28T21:07:00.907Z,7.93
2023-06-28T21:09:46.195Z,7.95
2023-06-28T21:12:31.490Z,7.68
2023-06-28T21:15:16.566Z,7.68
2023-06-28T21:18:01.818Z,7.21
2023-06-28T21:20:47.006Z,7.22
2023-06-28T21:23:32.479Z,7.74
2023-06-28T21:26:17.755Z,7.26
2023-06-28T21:29:03.139Z,7.43
2023-06-28T21:31:48.443Z,7.61
2023-06-28T21:34:33.669Z,7.06
2023-06-28T21:37:19.071Z,7.01
2023-06-28T21:40:04.627Z,6.69
2023-06-28T21:42:49.977Z,7.09
2023-06-28T21:45:35.459Z,6.84
2023-06-28T21:48:20.760Z,7.07
2023-06-28T21:51:06.068Z,7.08
2023-06-28T21:53:51.424Z,6.74
2023-06-28T21:56:36.919Z,7.02
2023-06-28T21:59:22.349Z,6.63
2023-06-28T22:02:07.485Z,6.64
2023-06-28T22:04:52.752Z,6.38
2023-06-28T22:07:38.098Z,6.68
2023-06-28T22:10:23.571Z,6.78
2023-06-28T22:13:08.923Z,6.86
2023-06-28T22:15:54.256Z,6.89
2023-06-28T22:18:39.621Z,6.54
2023-06-28T22:21:24.969Z,6.43
2023-06-28T22:24:10.393Z,6.70
2023-06-28T22:26:55.790Z,6.45
2023-06-28T22:29:41.241Z,6.51
2023-06-28T22:32:26.549Z,6.27
2023-06-28T22:35:11.727Z,6.60
2023-06-28T22:37:56.837Z,6.16
2023-06-28T22:40:42.110Z,6.09
2023-06-28T22:43:27.461Z,6.33
2023-06-28T22:46:12.684Z,6.25
2023-06-28T22:48:57.960Z,6.22
2023-06-28T22:51:43.485Z,6.07
2023-06-28T22:54:28.838Z,6.43
2023-06-28T22:57:14.128Z,6.20
2023-06-28T22:59:59.306Z,6.14
2023-06-28T23:02:44.673Z,5.97
2023-06-28T23:05:29.894Z,6.06
2023-06-28T23:08:15.269Z,5.82
2023-06-28T23:11:00.700Z,6.03
2023-06-28T23:13:45.991Z,5.86
2023-06-28T23:16:31.356Z,5.78
2023-06-28T23:19:16.761Z,6.10
2023-06-28T23:22:02.546Z,6.03
2023-06-28T23:24:48.006Z,5.62
2023-06-28T23:27:33.438Z,5.62
2023-06-28T23:30:18.851Z,6.08
2023-06-28T23:33:04.331Z,5.69
2023-06-28T23:35:49.686Z,5.66
2023-06-28T23:38:35.089Z,5.70
2023-06-28T23:41:20.358Z,5.83
2023-06-28T23:44:08.784Z,5.57
2023-06-28T23:46:54.357Z,5.64
2023-06-28T23:49:39.593Z,5.78
2023-06-28T23:52:24.867Z,5.90
2023-06-28T23:55:10.189Z,5.46
2023-06-28T23:57:55.565Z,5.69
